createdAt,value
2023-03-23T15:59:53.944Z,15.24
2023-03-23T16:02:26.929Z,15.19
2023-03-23T16:04:58.427Z,15.12
2023-03-23T16:07:29.559Z,15.04
2023-03-23T16:10:00.781Z,14.96
2023-03-23T16:12:33.178Z,14.84
2023-03-23T16:15:04.528Z,14.71
2023-03-23T16:17:35.991Z,14.60
2023-03-23T16:20:14.652Z,14.49
2023-03-23T16:22:45.964Z,14.42
2023-03-23T16:25:18.796Z,14.37
2023-03-23T16:27:52.324Z,14.29
2023-03-23T16:30:27.225Z,14.19
2023-03-23T16:32:58.352Z,14.06
2023-03-23T16:35:29.541Z,13.95
2023-03-23T16:38:08.101Z,13.86
2023-03-23T16:40:40.388Z,13.79
2023-03-23T16:43:12.044Z,13.72
2023-03-23T16:45:45.971Z,13.67
2023-03-23T16:48:18.330Z,13.58
2023-03-23T16:50:50.012Z,13.53
2023-03-23T16:53:21.734Z,13.45
2023-03-23T16:55:54.203Z,13.39
2023-03-23T16:58:29.128Z,13.35
2023-03-23T17:01:00.143Z,13.28
2023-03-23T17:03:31.778Z,13.26
2023-03-23T17:06:04.649Z,13.21
2023-03-23T17:08:35.995Z,13.15
2023-03-23T17:11:07.457Z,13.10
2023-03-23T17:13:39.067Z,13.03
2023-03-23T17:16:11.696Z,12.94
2023-03-23T17:18:42.703Z,12.86
2023-03-23T17:21:14.072Z,12.78
2023-03-23T17:23:45.296Z,12.71
2023-03-23T17:26:16.504Z,12.66
2023-03-23T17:28:47.665Z,12.62
2023-03-23T17:31:18.791Z,12.59
2023-03-23T17:33:52.174Z,12.58
2023-03-23T17:36:23.189Z,12.56
2023-03-23T17:38:54.821Z,12.52
2023-03-23T17:41:27.219Z,12.50
2023-03-23T17:43:58.538Z,12.50
2023-03-23T17:46:29.842Z,12.58
2023-03-23T17:49:01.339Z,12.64
2023-03-23T17:51:32.775Z,12.69
2023-03-23T17:54:03.885Z,12.74
2023-03-23T17:56:35.128Z,12.78
2023-03-23T17:59:07.245Z,12.83
2023-03-23T18:01:38.437Z,12.88
2023-03-23T18:04:09.773Z,12.93
2023-03-23T18:06:41.005Z,12.96
2023-03-23T18:09:12.851Z,12.99
2023-03-23T18:11:44.088Z,13.02
2023-03-23T18:14:15.665Z,13.05
2023-03-23T18:16:47.358Z,13.07
2023-03-23T18:19:18.773Z,13.09
2023-03-23T18:21:50.155Z,13.12
2023-03-23T18:24:21.798Z,13.14
2023-03-23T18:26:53.572Z,13.14
2023-03-23T18:29:24.970Z,13.14
2023-03-23T18:31:56.225Z,13.14
2023-03-23T18:34:27.593Z,13.14
2023-03-23T18:36:58.724Z,13.16
2023-03-23T18:39:31.753Z,13.16
2023-03-23T18:42:02.871Z,13.17
2023-03-23T18:44:34.111Z,13.18
2023-03-23T18:47:05.508Z,13.21
2023-03-23T18:49:36.773Z,13.25
2023-03-23T18:52:08.599Z,13.28
2023-03-23T18:54:41.764Z,13.30
2023-03-23T18:57:13.144Z,13.32
2023-03-23T18:59:44.459Z,13.34
2023-03-23T19:02:18.361Z,13.35
2023-03-23T19:04:50.515Z,13.37
2023-03-23T19:07:21.973Z,13.39
2023-03-23T19:09:53.200Z,13.39
2023-03-23T19:12:24.230Z,13.38
2023-03-23T19:14:55.393Z,13.36
2023-03-23T19:17:27.086Z,13.34
2023-03-23T19:19:58.291Z,13.34
2023-03-23T19:22:29.972Z,13.33
2023-03-23T19:25:01.486Z,13.32
2023-03-23T19:27:33.054Z,13.32
2023-03-23T19:30:04.674Z,13.31
2023-03-23T19:32:37.132Z,13.30
2023-03-23T19:35:10.168Z,13.28
2023-03-23T19:37:41.343Z,13.27
2023-03-23T19:40:31.744Z,13.26
2023-03-23T19:43:05.929Z,13.23
2023-03-23T19:45:37.224Z,13.22
2023-03-23T19:48:10.108Z,13.21
2023-03-23T19:50:42.910Z,13.20
2023-03-23T19:53:14.520Z,13.18
2023-03-23T19:55:46.205Z,13.17
2023-03-23T19:58:18.045Z,13.14
2023-03-23T20:00:50.637Z,13.09
2023-03-23T20:03:22.032Z,13.09
2023-03-23T20:05:53.088Z,13.06
2023-03-23T20:08:25.164Z,13.04
2023-03-23T20:11:05.311Z,13.02
2023-03-23T20:13:37.407Z,12.98
2023-03-23T20:16:10.579Z,12.94
2023-03-23T20:18:41.825Z,12.90
2023-03-23T20:21:15.330Z,12.85
2023-03-23T20:23:47.720Z,12.81
2023-03-23T20:26:21.194Z,12.78
2023-03-23T20:28:53.135Z,12.74
2023-03-23T20:31:26.811Z,12.70
2023-03-23T20:34:02.002Z,12.68
2023-03-23T20:36:36.064Z,12.66
2023-03-23T20:39:10.716Z,12.65
2023-03-23T20:41:43.338Z,12.63
2023-03-23T20:44:16.175Z,12.60
2023-03-23T20:46:48.933Z,12.62
2023-03-23T20:49:22.110Z,12.62
2023-03-23T20:51:53.837Z,12.60
2023-03-23T20:54:25.551Z,12.61
2023-03-23T20:56:58.565Z,12.58
2023-03-23T20:59:30.105Z,12.60
2023-03-23T21:02:01.466Z,12.61
2023-03-23T21:04:32.683Z,12.61
2023-03-23T21:07:03.938Z,12.61
2023-03-23T21:09:35.864Z,12.62
2023-03-23T21:12:09.299Z,12.62
2023-03-23T21:14:42.432Z,12.62
2023-03-23T21:17:13.560Z,12.61
2023-03-23T21:19:45.617Z,12.63
2023-03-23T21:22:19.201Z,12.65
2023-03-23T21:24:51.441Z,12.67
2023-03-23T21:27:22.544Z,12.66
2023-03-23T21:29:57.278Z,12.67
2023-03-23T21:32:29.181Z,12.67
2023-03-23T21:35:02.831Z,12.62
2023-03-23T21:37:34.018Z,12.61
2023-03-23T21:40:07.078Z,12.60
2023-03-23T21:42:42.215Z,12.60
2023-03-23T21:45:20.996Z,12.57
2023-03-23T21:47:57.005Z,12.55
2023-03-23T21:50:30.077Z,12.53
2023-03-23T21:53:01.542Z,12.51
2023-03-23T21:55:33.656Z,12.48
2023-03-23T21:58:05.734Z,12.46
2023-03-23T22:00:36.866Z,12.42
2023-03-23T22:03:09.255Z,12.37
2023-03-23T22:05:43.960Z,12.33
2023-03-23T22:08:15.279Z,12.30
2023-03-23T22:10:47.091Z,12.26
2023-03-23T22:13:35.273Z,12.21
2023-03-23T22:16:09.223Z,12.16
2023-03-23T22:18:43.109Z,12.12
2023-03-23T22:21:15.892Z,12.07
2023-03-23T22:23:48.098Z,12.04
2023-03-23T22:26:19.398Z,12.02
2023-03-23T22:28:51.179Z,11.98
2023-03-23T22:31:24.602Z,11.96
2023-03-23T22:33:57.335Z,11.90
2023-03-23T22:36:29.807Z,11.87
2023-03-23T22:39:01.222Z,11.85
2023-03-23T22:41:35.679Z,11.81
2023-03-23T22:44:09.055Z,11.78
2023-03-23T22:46:40.287Z,11.75
2023-03-23T22:49:11.820Z,11.72
2023-03-23T22:51:43.082Z,11.70
2023-03-23T22:54:14.433Z,11.67
2023-03-23T22:56:45.623Z,11.64
2023-03-23T22:59:17.091Z,11.60
2023-03-23T23:01:49.044Z,11.57
2023-03-23T23:04:20.269Z,11.55
2023-03-23T23:06:57.609Z,11.50
2023-03-23T23:09:37.790Z,11.46
2023-03-23T23:12:09.684Z,11.41
2023-03-23T23:14:43.391Z,11.38
2023-03-23T23:17:14.523Z,11.33
2023-03-23T23:19:45.575Z,11.30
2023-03-23T23:22:19.313Z,11.27
2023-03-23T23:24:50.950Z,11.23
2023-03-23T23:27:22.064Z,11.22
2023-03-23T23:29:53.264Z,11.18
2023-03-23T23:32:24.706Z,11.14
2023-03-23T23:34:56.144Z,11.10
2023-03-23T23:37:28.178Z,11.07
2023-03-23T23:39:59.746Z,11.05
2023-03-23T23:42:31.114Z,11.04
2023-03-23T23:45:03.365Z,11.02
2023-03-23T23:47:35.165Z,10.99
2023-03-23T23:50:08.656Z,10.95
2023-03-23T23:52:42.678Z,10.90
2023-03-23T23:55:16.860Z,10.84
2023-03-23T23:57:49.343Z,10.74
